sensor_id;sensor_type;location;lat;lon;timestamp;P1;durP1;ratioP1;P2;durP2;ratioP2
12788;SDS011;6458;42.710;23.192;2022-10-12T00:01:16;34.93;;;20.03;;
12788;SDS011;6458;42.710;23.192;2022-10-12T00:03:42;35.77;;;20.77;;
12788;SDS011;6458;42.710;23.192;2022-10-12T00:06:09;33.20;;;20.83;;
12788;SDS011;6458;42.710;23.192;2022-10-12T00:08:37;32.47;;;20.80;;
12788;SDS011;6458;42.710;23.192;2022-10-12T00:11:06;39.87;;;20.53;;
12788;SDS011;6458;42.710;23.192;2022-10-12T00:13:33;34.93;;;20.93;;
12788;SDS011;6458;42.710;23.192;2022-10-12T00:16:01;31.20;;;20.17;;
12788;SDS011;6458;42.710;23.192;2022-10-12T00:18:27;37.87;;;20.23;;
12788;SDS011;6458;42.710;23.192;2022-10-12T00:20:59;34.80;;;19.33;;
12788;SDS011;6458;42.710;23.192;2022-10-12T00:23:25;31.87;;;20.13;;
12788;SDS011;6458;42.710;23.192;2022-10-12T00:25:52;33.03;;;19.50;;
12788;SDS011;6458;42.710;23.192;2022-10-12T00:28:20;34.63;;;21.07;;
12788;SDS011;6458;42.710;23.192;2022-10-12T00:30:47;32.53;;;20.77;;
12788;SDS011;6458;42.710;23.192;2022-10-12T00:33:13;34.60;;;21.13;;
12788;SDS011;6458;42.710;23.192;2022-10-12T00:35:40;31.07;;;20.40;;
12788;SDS011;6458;42.710;23.192;2022-10-12T00:38:06;31.70;;;19.93;;
12788;SDS011;6458;42.710;23.192;2022-10-12T00:40:33;31.67;;;19.90;;
12788;SDS011;6458;42.710;23.192;2022-10-12T00:43:00;38.07;;;21.23;;
12788;SDS011;6458;42.710;23.192;2022-10-12T00:45:28;34.30;;;19.90;;
12788;SDS011;6458;42.710;23.192;2022-10-12T00:47:56;33.80;;;20.33;;
12788;SDS011;6458;42.710;23.192;2022-10-12T00:50:24;31.87;;;20.60;;
12788;SDS011;6458;42.710;23.192;2022-10-12T00:52:54;33.40;;;20.47;;
12788;SDS011;6458;42.710;23.192;2022-10-12T00:55:21;36.43;;;20.17;;
12788;SDS011;6458;42.710;23.192;2022-10-12T00:57:48;35.03;;;21.07;;
12788;SDS011;6458;42.710;23.192;2022-10-12T01:00:17;30.57;;;19.47;;
12788;SDS011;6458;42.710;23.192;2022-10-12T01:02:46;35.30;;;20.77;;
12788;SDS011;6458;42.710;23.192;2022-10-12T01:05:13;35.53;;;19.87;;
12788;SDS011;6458;42.710;23.192;2022-10-12T01:07:40;32.97;;;20.03;;
12788;SDS011;6458;42.710;23.192;2022-10-12T01:10:07;32.27;;;20.50;;
12788;SDS011;6458;42.710;23.192;2022-10-12T01:12:34;33.63;;;19.83;;
12788;SDS011;6458;42.710;23.192;2022-10-12T01:15:01;35.47;;;20.27;;
12788;SDS011;6458;42.710;23.192;2022-10-12T01:17:31;31.93;;;19.77;;
12788;SDS011;6458;42.710;23.192;2022-10-12T01:20:16;35.30;;;20.67;;
12788;SDS011;6458;42.710;23.192;2022-10-12T01:22:53;37.10;;;20.07;;
12788;SDS011;6458;42.710;23.192;2022-10-12T01:25:24;32.40;;;21.37;;
12788;SDS011;6458;42.710;23.192;2022-10-12T01:27:56;31.97;;;19.73;;
12788;SDS011;6458;42.710;23.192;2022-10-12T01:30:29;36.83;;;20.50;;
12788;SDS011;6458;42.710;23.192;2022-10-12T01:33:04;32.07;;;18.43;;
12788;SDS011;6458;42.710;23.192;2022-10-12T01:35:33;34.03;;;19.80;;
12788;SDS011;6458;42.710;23.192;2022-10-12T01:38:04;31.70;;;19.90;;
12788;SDS011;6458;42.710;23.192;2022-10-12T01:40:32;32.17;;;19.63;;
12788;SDS011;6458;42.710;23.192;2022-10-12T01:43:01;32.80;;;20.70;;
12788;SDS011;6458;42.710;23.192;2022-10-12T01:45:29;36.67;;;20.60;;
12788;SDS011;6458;42.710;23.192;2022-10-12T01:47:56;30.43;;;17.53;;
12788;SDS011;6458;42.710;23.192;2022-10-12T01:50:24;36.23;;;20.07;;
12788;SDS011;6458;42.710;23.192;2022-10-12T01:52:54;36.70;;;18.87;;
12788;SDS011;6458;42.710;23.192;2022-10-12T01:55:25;30.00;;;18.77;;
12788;SDS011;6458;42.710;23.192;2022-10-12T01:58:02;33.00;;;18.33;;
12788;SDS011;6458;42.710;23.192;2022-10-12T02:00:35;30.90;;;18.33;;
12788;SDS011;6458;42.710;23.192;2022-10-12T02:03:07;28.70;;;17.83;;
12788;SDS011;6458;42.710;23.192;2022-10-12T02:05:37;32.37;;;19.03;;
12788;SDS011;6458;42.710;23.192;2022-10-12T02:08:07;31.00;;;20.00;;
12788;SDS011;6458;42.710;23.192;2022-10-12T02:10:36;28.10;;;17.30;;
12788;SDS011;6458;42.710;23.192;2022-10-12T02:13:04;32.10;;;20.13;;
12788;SDS011;6458;42.710;23.192;2022-10-12T02:15:33;26.97;;;18.10;;
12788;SDS011;6458;42.710;23.192;2022-10-12T02:18:02;31.83;;;19.00;;
12788;SDS011;6458;42.710;23.192;2022-10-12T02:20:29;28.80;;;19.27;;
12788;SDS011;6458;42.710;23.192;2022-10-12T02:22:56;38.17;;;22.17;;
12788;SDS011;6458;42.710;23.192;2022-10-12T02:25:24;34.40;;;20.30;;
12788;SDS011;6458;42.710;23.192;2022-10-12T02:27:54;36.77;;;21.03;;
12788;SDS011;6458;42.710;23.192;2022-10-12T02:30:21;30.70;;;19.47;;
12788;SDS011;6458;42.710;23.192;2022-10-12T02:32:50;28.30;;;18.70;;
12788;SDS011;6458;42.710;23.192;2022-10-12T02:35:20;32.97;;;18.30;;
12788;SDS011;6458;42.710;23.192;2022-10-12T02:37:48;34.57;;;18.83;;
12788;SDS011;6458;42.710;23.192;2022-10-12T02:40:17;30.73;;;18.90;;
12788;SDS011;6458;42.710;23.192;2022-10-12T02:42:47;30.90;;;19.57;;
12788;SDS011;6458;42.710;23.192;2022-10-12T02:45:15;34.40;;;20.40;;
12788;SDS011;6458;42.710;23.192;2022-10-12T02:47:43;33.30;;;21.63;;
12788;SDS011;6458;42.710;23.192;2022-10-12T02:50:12;35.17;;;20.70;;
12788;SDS011;6458;42.710;23.192;2022-10-12T02:52:40;35.30;;;21.60;;
12788;SDS011;6458;42.710;23.192;2022-10-12T02:55:07;29.33;;;19.23;;
12788;SDS011;6458;42.710;23.192;2022-10-12T02:57:34;30.07;;;19.40;;
12788;SDS011;6458;42.710;23.192;2022-10-12T03:00:00;33.93;;;20.60;;
12788;SDS011;6458;42.710;23.192;2022-10-12T03:02:27;34.13;;;20.97;;
12788;SDS011;6458;42.710;23.192;2022-10-12T03:04:54;29.83;;;19.53;;
12788;SDS011;6458;42.710;23.192;2022-10-12T03:07:22;32.23;;;19.43;;
12788;SDS011;6458;42.710;23.192;2022-10-12T03:09:49;30.97;;;19.43;;
12788;SDS011;6458;42.710;23.192;2022-10-12T03:12:15;32.93;;;19.27;;
12788;SDS011;6458;42.710;23.192;2022-10-12T03:14:42;31.27;;;20.00;;
12788;SDS011;6458;42.710;23.192;2022-10-12T03:17:08;30.17;;;18.47;;
12788;SDS011;6458;42.710;23.192;2022-10-12T03:19:35;35.30;;;21.60;;
12788;SDS011;6458;42.710;23.192;2022-10-12T03:22:04;37.80;;;24.20;;
12788;SDS011;6458;42.710;23.192;2022-10-12T03:24:32;35.83;;;22.70;;
12788;SDS011;6458;42.710;23.192;2022-10-12T03:26:58;33.93;;;19.57;;
12788;SDS011;6458;42.710;23.192;2022-10-12T03:29:25;32.83;;;21.73;;
12788;SDS011;6458;42.710;23.192;2022-10-12T03:31:52;35.30;;;19.67;;
12788;SDS011;6458;42.710;23.192;2022-10-12T03:34:18;33.63;;;20.37;;
12788;SDS011;6458;42.710;23.192;2022-10-12T03:36:45;33.67;;;19.97;;
12788;SDS011;6458;42.710;23.192;2022-10-12T03:39:12;31.43;;;19.33;;
12788;SDS011;6458;42.710;23.192;2022-10-12T03:41:40;32.50;;;19.40;;
12788;SDS011;6458;42.710;23.192;2022-10-12T03:44:06;34.20;;;19.60;;
12788;SDS011;6458;42.710;23.192;2022-10-12T03:46:33;33.73;;;19.40;;
12788;SDS011;6458;42.710;23.192;2022-10-12T03:49:00;33.33;;;19.37;;
12788;SDS011;6458;42.710;23.192;2022-10-12T03:51:26;33.00;;;20.53;;
12788;SDS011;6458;42.710;23.192;2022-10-12T03:53:53;34.37;;;19.70;;
12788;SDS011;6458;42.710;23.192;2022-10-12T03:56:20;37.97;;;20.33;;
12788;SDS011;6458;42.710;23.192;2022-10-12T03:58:48;41.50;;;23.30;;
12788;SDS011;6458;42.710;23.192;2022-10-12T04:01:14;40.13;;;21.70;;
12788;SDS011;6458;42.710;23.192;2022-10-12T04:03:41;33.53;;;21.03;;
12788;SDS011;6458;42.710;23.192;2022-10-12T04:06:07;34.53;;;20.90;;
12788;SDS011;6458;42.710;23.192;2022-10-12T04:08:34;34.23;;;19.77;;
12788;SDS011;6458;42.710;23.192;2022-10-12T04:11:01;37.13;;;21.40;;
12788;SDS011;6458;42.710;23.192;2022-10-12T04:13:27;35.20;;;20.20;;
12788;SDS011;6458;42.710;23.192;2022-10-12T04:15:59;33.37;;;20.33;;
12788;SDS011;6458;42.710;23.192;2022-10-12T04:18:26;32.93;;;20.00;;
12788;SDS011;6458;42.710;23.192;2022-10-12T04:20:52;38.07;;;20.80;;
12788;SDS011;6458;42.710;23.192;2022-10-12T04:23:19;39.80;;;21.60;;
12788;SDS011;6458;42.710;23.192;2022-10-12T04:25:46;30.93;;;19.97;;
12788;SDS011;6458;42.710;23.192;2022-10-12T04:28:12;29.03;;;20.30;;
12788;SDS011;6458;42.710;23.192;2022-10-12T04:30:39;31.70;;;19.20;;
12788;SDS011;6458;42.710;23.192;2022-10-12T04:33:07;38.07;;;20.70;;
12788;SDS011;6458;42.710;23.192;2022-10-12T04:35:34;38.57;;;22.43;;
12788;SDS011;6458;42.710;23.192;2022-10-12T04:38:00;36.03;;;21.33;;
12788;SDS011;6458;42.710;23.192;2022-10-12T04:40:27;37.07;;;22.80;;
12788;SDS011;6458;42.710;23.192;2022-10-12T04:42:53;35.23;;;21.90;;
12788;SDS011;6458;42.710;23.192;2022-10-12T04:45:21;34.17;;;21.47;;
12788;SDS011;6458;42.710;23.192;2022-10-12T04:47:47;34.00;;;20.63;;
12788;SDS011;6458;42.710;23.192;2022-10-12T04:50:16;33.33;;;21.07;;
12788;SDS011;6458;42.710;23.192;2022-10-12T04:52:42;29.47;;;19.17;;
12788;SDS011;6458;42.710;23.192;2022-10-12T04:55:09;35.10;;;20.60;;
12788;SDS011;6458;42.710;23.192;2022-10-12T04:57:36;32.73;;;19.70;;
12788;SDS011;6458;42.710;23.192;2022-10-12T05:00:02;34.13;;;19.47;;
12788;SDS011;6458;42.710;23.192;2022-10-12T05:02:29;34.67;;;20.17;;
12788;SDS011;6458;42.710;23.192;2022-10-12T05:04:56;35.10;;;21.97;;
12788;SDS011;6458;42.710;23.192;2022-10-12T05:07:24;38.40;;;21.73;;
12788;SDS011;6458;42.710;23.192;2022-10-12T05:09:51;36.90;;;20.47;;
12788;SDS011;6458;42.710;23.192;2022-10-12T05:12:18;35.37;;;19.67;;
12788;SDS011;6458;42.710;23.192;2022-10-12T05:14:45;35.60;;;22.50;;
12788;SDS011;6458;42.710;23.192;2022-10-12T05:17:11;34.50;;;22.77;;
12788;SDS011;6458;42.710;23.192;2022-10-12T05:19:38;40.10;;;23.93;;
12788;SDS011;6458;42.710;23.192;2022-10-12T05:22:04;41.97;;;22.63;;
12788;SDS011;6458;42.710;23.192;2022-10-12T05:24:33;37.03;;;21.47;;
12788;SDS011;6458;42.710;23.192;2022-10-12T05:26:59;32.50;;;20.30;;
12788;SDS011;6458;42.710;23.192;2022-10-12T05:29:27;36.07;;;21.10;;
12788;SDS011;6458;42.710;23.192;2022-10-12T05:31:53;34.73;;;21.47;;
12788;SDS011;6458;42.710;23.192;2022-10-12T05:34:20;34.67;;;21.20;;
12788;SDS011;6458;42.710;23.192;2022-10-12T05:36:47;32.50;;;21.63;;
12788;SDS011;6458;42.710;23.192;2022-10-12T05:39:14;36.13;;;23.00;;
12788;SDS011;6458;42.710;23.192;2022-10-12T05:41:42;39.23;;;22.20;;
12788;SDS011;6458;42.710;23.192;2022-10-12T05:44:10;37.97;;;23.07;;
12788;SDS011;6458;42.710;23.192;2022-10-12T05:46:36;36.30;;;23.20;;
12788;SDS011;6458;42.710;23.192;2022-10-12T05:49:05;40.17;;;24.20;;
12788;SDS011;6458;42.710;23.192;2022-10-12T05:51:32;31.13;;;20.03;;
12788;SDS011;6458;42.710;23.192;2022-10-12T05:53:58;33.67;;;21.00;;
12788;SDS011;6458;42.710;23.192;2022-10-12T05:56:25;27.80;;;17.80;;
12788;SDS011;6458;42.710;23.192;2022-10-12T05:58:53;27.13;;;17.67;;
12788;SDS011;6458;42.710;23.192;2022-10-12T06:01:20;27.53;;;17.70;;
12788;SDS011;6458;42.710;23.192;2022-10-12T06:03:47;29.20;;;18.33;;
12788;SDS011;6458;42.710;23.192;2022-10-12T06:06:13;29.30;;;19.03;;
12788;SDS011;6458;42.710;23.192;2022-10-12T06:08:40;32.00;;;18.30;;
12788;SDS011;6458;42.710;23.192;2022-10-12T06:11:06;32.13;;;19.13;;
12788;SDS011;6458;42.710;23.192;2022-10-12T06:13:33;29.57;;;19.43;;
12788;SDS011;6458;42.710;23.192;2022-10-12T06:16:01;31.87;;;19.43;;
12788;SDS011;6458;42.710;23.192;2022-10-12T06:18:28;29.57;;;18.23;;
12788;SDS011;6458;42.710;23.192;2022-10-12T06:20:55;28.80;;;18.63;;
12788;SDS011;6458;42.710;23.192;2022-10-12T06:23:21;29.87;;;16.90;;
12788;SDS011;6458;42.710;23.192;2022-10-12T06:25:49;25.37;;;17.53;;
12788;SDS011;6458;42.710;23.192;2022-10-12T06:28:16;25.47;;;17.93;;
12788;SDS011;6458;42.710;23.192;2022-10-12T06:30:44;27.80;;;17.57;;
12788;SDS011;6458;42.710;23.192;2022-10-12T06:33:12;28.07;;;17.63;;
12788;SDS011;6458;42.710;23.192;2022-10-12T06:35:42;26.97;;;17.90;;
12788;SDS011;6458;42.710;23.192;2022-10-12T06:38:08;25.37;;;17.53;;
12788;SDS011;6458;42.710;23.192;2022-10-12T06:40:35;25.13;;;17.30;;
12788;SDS011;6458;42.710;23.192;2022-10-12T06:43:02;28.73;;;17.43;;
12788;SDS011;6458;42.710;23.192;2022-10-12T06:45:29;25.70;;;17.77;;
12788;SDS011;6458;42.710;23.192;2022-10-12T06:47:55;24.00;;;16.57;;
12788;SDS011;6458;42.710;23.192;2022-10-12T06:50:24;26.80;;;17.80;;
12788;SDS011;6458;42.710;23.192;2022-10-12T06:52:51;32.23;;;18.57;;
12788;SDS011;6458;42.710;23.192;2022-10-12T06:55:17;32.77;;;18.53;;
12788;SDS011;6458;42.710;23.192;2022-10-12T06:57:44;25.87;;;17.00;;
12788;SDS011;6458;42.710;23.192;2022-10-12T07:00:11;24.73;;;17.27;;
12788;SDS011;6458;42.710;23.192;2022-10-12T07:02:38;29.87;;;18.03;;
12788;SDS011;6458;42.710;23.192;2022-10-12T07:05:05;25.20;;;16.77;;
12788;SDS011;6458;42.710;23.192;2022-10-12T07:07:34;29.37;;;17.50;;
12788;SDS011;6458;42.710;23.192;2022-10-12T07:10:01;26.67;;;17.60;;
12788;SDS011;6458;42.710;23.192;2022-10-12T07:12:28;23.60;;;15.93;;
12788;SDS011;6458;42.710;23.192;2022-10-12T07:14:55;27.73;;;16.53;;
12788;SDS011;6458;42.710;23.192;2022-10-12T07:17:23;25.33;;;16.13;;
12788;SDS011;6458;42.710;23.192;2022-10-12T07:19:49;23.63;;;15.67;;
12788;SDS011;6458;42.710;23.192;2022-10-12T07:22:16;23.97;;;15.07;;
12788;SDS011;6458;42.710;23.192;2022-10-12T07:24:44;25.70;;;16.83;;
12788;SDS011;6458;42.710;23.192;2022-10-12T07:27:11;22.30;;;15.20;;
12788;SDS011;6458;42.710;23.192;2022-10-12T07:29:38;26.20;;;16.80;;
12788;SDS011;6458;42.710;23.192;2022-10-12T07:32:05;26.30;;;16.47;;
12788;SDS011;6458;42.710;23.192;2022-10-12T07:34:32;20.67;;;14.53;;
12788;SDS011;6458;42.710;23.192;2022-10-12T07:36:59;23.27;;;15.10;;
12788;SDS011;6458;42.710;23.192;2022-10-12T07:39:26;22.23;;;15.40;;
12788;SDS011;6458;42.710;23.192;2022-10-12T07:41:54;20.97;;;14.97;;
12788;SDS011;6458;42.710;23.192;2022-10-12T07:44:21;22.43;;;15.13;;
12788;SDS011;6458;42.710;23.192;2022-10-12T07:46:48;21.63;;;14.83;;
12788;SDS011;6458;42.710;23.192;2022-10-12T07:49:15;21.93;;;15.03;;
12788;SDS011;6458;42.710;23.192;2022-10-12T07:51:42;20.53;;;14.80;;
12788;SDS011;6458;42.710;23.192;2022-10-12T07:54:10;21.17;;;14.73;;
12788;SDS011;6458;42.710;23.192;2022-10-12T07:56:37;24.60;;;15.17;;
12788;SDS011;6458;42.710;23.192;2022-10-12T07:59:05;20.57;;;13.87;;
12788;SDS011;6458;42.710;23.192;2022-10-12T08:01:32;20.47;;;14.70;;
12788;SDS011;6458;42.710;23.192;2022-10-12T08:03:59;20.80;;;14.67;;
12788;SDS011;6458;42.710;23.192;2022-10-12T08:06:28;19.03;;;14.43;;
12788;SDS011;6458;42.710;23.192;2022-10-12T08:08:56;19.77;;;14.03;;
12788;SDS011;6458;42.710;23.192;2022-10-12T08:11:22;19.90;;;15.00;;
12788;SDS011;6458;42.710;23.192;2022-10-12T08:13:49;20.37;;;15.33;;
12788;SDS011;6458;42.710;23.192;2022-10-12T08:16:18;22.90;;;15.63;;
12788;SDS011;6458;42.710;23.192;2022-10-12T08:18:45;22.20;;;15.10;;
12788;SDS011;6458;42.710;23.192;2022-10-12T08:21:12;23.53;;;15.33;;
12788;SDS011;6458;42.710;23.192;2022-10-12T08:23:39;21.17;;;15.50;;
12788;SDS011;6458;42.710;23.192;2022-10-12T08:26:06;21.97;;;14.87;;
12788;SDS011;6458;42.710;23.192;2022-10-12T08:28:34;26.03;;;16.40;;
12788;SDS011;6458;42.710;23.192;2022-10-12T08:31:04;23.87;;;15.13;;
12788;SDS011;6458;42.710;23.192;2022-10-12T08:33:32;22.27;;;15.60;;
12788;SDS011;6458;42.710;23.192;2022-10-12T08:35:59;23.90;;;16.47;;
12788;SDS011;6458;42.710;23.192;2022-10-12T08:38:27;24.40;;;15.57;;
12788;SDS011;6458;42.710;23.192;2022-10-12T08:40:55;24.23;;;16.17;;
12788;SDS011;6458;42.710;23.192;2022-10-12T08:43:24;23.20;;;16.93;;
12788;SDS011;6458;42.710;23.192;2022-10-12T08:45:53;29.93;;;17.27;;
12788;SDS011;6458;42.710;23.192;2022-10-12T08:48:21;29.13;;;16.83;;
12788;SDS011;6458;42.710;23.192;2022-10-12T08:50:50;27.03;;;16.20;;
12788;SDS011;6458;42.710;23.192;2022-10-12T08:53:19;28.13;;;18.07;;
12788;SDS011;6458;42.710;23.192;2022-10-12T08:55:47;25.27;;;17.50;;
12788;SDS011;6458;42.710;23.192;2022-10-12T08:58:17;29.20;;;17.60;;
12788;SDS011;6458;42.710;23.192;2022-10-12T09:00:45;24.67;;;18.27;;
12788;SDS011;6458;42.710;23.192;2022-10-12T09:03:14;27.37;;;16.90;;
12788;SDS011;6458;42.710;23.192;2022-10-12T09:05:44;28.30;;;16.00;;
12788;SDS011;6458;42.710;23.192;2022-10-12T09:08:18;26.23;;;16.30;;
12788;SDS011;6458;42.710;23.192;2022-10-12T09:10:48;21.90;;;15.83;;
12788;SDS011;6458;42.710;23.192;2022-10-12T09:13:23;29.03;;;16.93;;
12788;SDS011;6458;42.710;23.192;2022-10-12T09:15:56;23.87;;;15.87;;
12788;SDS011;6458;42.710;23.192;2022-10-12T09:18:26;24.67;;;15.93;;
12788;SDS011;6458;42.710;23.192;2022-10-12T09:20:54;24.57;;;16.13;;
12788;SDS011;6458;42.710;23.192;2022-10-12T09:23:24;24.13;;;16.90;;
12788;SDS011;6458;42.710;23.192;2022-10-12T09:25:51;28.47;;;16.37;;
12788;SDS011;6458;42.710;23.192;2022-10-12T09:28:20;25.33;;;16.23;;
12788;SDS011;6458;42.710;23.192;2022-10-12T09:30:53;21.93;;;15.50;;
12788;SDS011;6458;42.710;23.192;2022-10-12T09:33:22;23.63;;;15.33;;
12788;SDS011;6458;42.710;23.192;2022-10-12T09:35:50;22.57;;;16.00;;
12788;SDS011;6458;42.710;23.192;2022-10-12T09:38:18;23.20;;;15.70;;
12788;SDS011;6458;42.710;23.192;2022-10-12T09:40:47;23.70;;;14.93;;
12788;SDS011;6458;42.710;23.192;2022-10-12T09:43:14;22.70;;;16.47;;
12788;SDS011;6458;42.710;23.192;2022-10-12T09:45:41;26.30;;;17.40;;
12788;SDS011;6458;42.710;23.192;2022-10-12T09:48:09;27.23;;;17.70;;
12788;SDS011;6458;42.710;23.192;2022-10-12T09:50:39;28.37;;;18.27;;
12788;SDS011;6458;42.710;23.192;2022-10-12T09:53:13;24.57;;;16.03;;
12788;SDS011;6458;42.710;23.192;2022-10-12T09:55:41;15.33;;;11.97;;
12788;SDS011;6458;42.710;23.192;2022-10-12T09:58:18;19.30;;;12.27;;
12788;SDS011;6458;42.710;23.192;2022-10-12T10:00:45;15.27;;;12.13;;
12788;SDS011;6458;42.710;23.192;2022-10-12T10:03:32;14.93;;;11.93;;
12788;SDS011;6458;42.710;23.192;2022-10-12T10:06:01;18.00;;;11.33;;
12788;SDS011;6458;42.710;23.192;2022-10-12T10:08:30;14.00;;;11.47;;
12788;SDS011;6458;42.710;23.192;2022-10-12T10:11:04;16.67;;;11.83;;
12788;SDS011;6458;42.710;23.192;2022-10-12T10:13:32;16.43;;;11.80;;
12788;SDS011;6458;42.710;23.192;2022-10-12T10:16:02;18.93;;;12.13;;
12788;SDS011;6458;42.710;23.192;2022-10-12T10:18:31;18.00;;;12.17;;
12788;SDS011;6458;42.710;23.192;2022-10-12T10:20:59;16.33;;;11.80;;
12788;SDS011;6458;42.710;23.192;2022-10-12T10:23:27;16.43;;;12.00;;
12788;SDS011;6458;42.710;23.192;2022-10-12T10:25:55;18.43;;;12.47;;
12788;SDS011;6458;42.710;23.192;2022-10-12T10:28:23;19.83;;;13.27;;
12788;SDS011;6458;42.710;23.192;2022-10-12T10:30:58;18.30;;;13.17;;
12788;SDS011;6458;42.710;23.192;2022-10-12T10:33:26;17.27;;;12.07;;
12788;SDS011;6458;42.710;23.192;2022-10-12T10:35:55;16.13;;;12.10;;
12788;SDS011;6458;42.710;23.192;2022-10-12T10:38:23;26.03;;;12.93;;
12788;SDS011;6458;42.710;23.192;2022-10-12T10:40:50;20.60;;;13.17;;
12788;SDS011;6458;42.710;23.192;2022-10-12T10:43:19;20.17;;;14.13;;
12788;SDS011;6458;42.710;23.192;2022-10-12T10:45:47;15.53;;;11.37;;
12788;SDS011;6458;42.710;23.192;2022-10-12T10:48:16;18.87;;;12.53;;
12788;SDS011;6458;42.710;23.192;2022-10-12T10:50:49;16.87;;;11.57;;
12788;SDS011;6458;42.710;23.192;2022-10-12T10:53:17;18.67;;;11.70;;
12788;SDS011;6458;42.710;23.192;2022-10-12T10:55:46;16.47;;;11.60;;
12788;SDS011;6458;42.710;23.192;2022-10-12T10:58:19;19.07;;;11.57;;
12788;SDS011;6458;42.710;23.192;2022-10-12T11:00:47;16.50;;;12.10;;
12788;SDS011;6458;42.710;23.192;2022-10-12T11:03:19;16.10;;;11.20;;
12788;SDS011;6458;42.710;23.192;2022-10-12T11:05:48;15.60;;;10.80;;
12788;SDS011;6458;42.710;23.192;2022-10-12T11:08:18;17.83;;;11.87;;
12788;SDS011;6458;42.710;23.192;2022-10-12T11:10:47;16.60;;;11.07;;
12788;SDS011;6458;42.710;23.192;2022-10-12T11:13:16;17.03;;;11.93;;
12788;SDS011;6458;42.710;23.192;2022-10-12T11:15:45;18.30;;;11.57;;
12788;SDS011;6458;42.710;23.192;2022-10-12T11:18:14;15.53;;;12.03;;
12788;SDS011;6458;42.710;23.192;2022-10-12T11:20:49;15.67;;;11.07;;
12788;SDS011;6458;42.710;23.192;2022-10-12T11:23:23;17.57;;;11.57;;
12788;SDS011;6458;42.710;23.192;2022-10-12T11:26:07;16.37;;;11.00;;
12788;SDS011;6458;42.710;23.192;2022-10-12T11:28:35;14.83;;;11.23;;
12788;SDS011;6458;42.710;23.192;2022-10-12T11:31:03;14.63;;;11.67;;
12788;SDS011;6458;42.710;23.192;2022-10-12T11:33:33;19.33;;;12.50;;
12788;SDS011;6458;42.710;23.192;2022-10-12T11:36:04;15.03;;;11.87;;
12788;SDS011;6458;42.710;23.192;2022-10-12T11:38:32;16.23;;;11.20;;
12788;SDS011;6458;42.710;23.192;2022-10-12T11:41:02;16.67;;;10.87;;
12788;SDS011;6458;42.710;23.192;2022-10-12T11:43:33;15.10;;;10.80;;
12788;SDS011;6458;42.710;23.192;2022-10-12T11:46:04;16.60;;;11.77;;
12788;SDS011;6458;42.710;23.192;2022-10-12T11:48:33;17.97;;;11.50;;
12788;SDS011;6458;42.710;23.192;2022-10-12T11:51:01;14.63;;;10.10;;
12788;SDS011;6458;42.710;23.192;2022-10-12T11:53:32;14.53;;;10.47;;
12788;SDS011;6458;42.710;23.192;2022-10-12T11:56:03;13.40;;;10.03;;
12788;SDS011;6458;42.710;23.192;2022-10-12T11:58:34;15.07;;;11.00;;
12788;SDS011;6458;42.710;23.192;2022-10-12T12:01:05;15.20;;;9.90;;
12788;SDS011;6458;42.710;23.192;2022-10-12T12:03:37;15.40;;;10.17;;
12788;SDS011;6458;42.710;23.192;2022-10-12T12:09:04;12.43;;;9.40;;
12788;SDS011;6458;42.710;23.192;2022-10-12T12:11:32;12.47;;;8.73;;
12788;SDS011;6458;42.710;23.192;2022-10-12T12:16:44;11.53;;;8.97;;
12788;SDS011;6458;42.710;23.192;2022-10-12T12:22:19;11.90;;;8.77;;
12788;SDS011;6458;42.710;23.192;2022-10-12T12:24:57;13.63;;;9.23;;
12788;SDS011;6458;42.710;23.192;2022-10-12T12:27:28;12.37;;;9.67;;
12788;SDS011;6458;42.710;23.192;2022-10-12T12:29:56;12.77;;;8.93;;
12788;SDS011;6458;42.710;23.192;2022-10-12T12:32:24;10.60;;;8.33;;
12788;SDS011;6458;42.710;23.192;2022-10-12T12:34:53;11.33;;;8.87;;
12788;SDS011;6458;42.710;23.192;2022-10-12T12:37:20;11.43;;;8.70;;
12788;SDS011;6458;42.710;23.192;2022-10-12T12:39:50;14.57;;;9.67;;
12788;SDS011;6458;42.710;23.192;2022-10-12T12:42:22;14.60;;;9.50;;
12788;SDS011;6458;42.710;23.192;2022-10-12T12:44:50;10.17;;;8.60;;
12788;SDS011;6458;42.710;23.192;2022-10-12T12:47:21;10.63;;;8.73;;
12788;SDS011;6458;42.710;23.192;2022-10-12T12:50:01;12.07;;;9.40;;
12788;SDS011;6458;42.710;23.192;2022-10-12T12:52:30;11.40;;;9.23;;
12788;SDS011;6458;42.710;23.192;2022-10-12T12:57:58;11.83;;;9.03;;
12788;SDS011;6458;42.710;23.192;2022-10-12T13:00:28;14.07;;;10.13;;
12788;SDS011;6458;42.710;23.192;2022-10-12T13:08:26;11.73;;;9.50;;
12788;SDS011;6458;42.710;23.192;2022-10-12T13:10:59;12.40;;;9.07;;
12788;SDS011;6458;42.710;23.192;2022-10-12T13:13:37;14.63;;;9.60;;
12788;SDS011;6458;42.710;23.192;2022-10-12T13:16:20;12.27;;;10.50;;
12788;SDS011;6458;42.710;23.192;2022-10-12T13:18:50;13.17;;;9.63;;
12788;SDS011;6458;42.710;23.192;2022-10-12T13:21:22;14.03;;;10.33;;
12788;SDS011;6458;42.710;23.192;2022-10-12T13:23:51;13.13;;;9.83;;
12788;SDS011;6458;42.710;23.192;2022-10-12T13:26:21;14.20;;;9.93;;
12788;SDS011;6458;42.710;23.192;2022-10-12T13:28:50;14.80;;;10.97;;
12788;SDS011;6458;42.710;23.192;2022-10-12T13:31:18;13.87;;;10.23;;
12788;SDS011;6458;42.710;23.192;2022-10-12T13:33:48;13.33;;;10.63;;
12788;SDS011;6458;42.710;23.192;2022-10-12T13:36:20;14.20;;;10.60;;
12788;SDS011;6458;42.710;23.192;2022-10-12T13:38:52;14.37;;;9.77;;
12788;SDS011;6458;42.710;23.192;2022-10-12T13:41:19;14.97;;;10.13;;
12788;SDS011;6458;42.710;23.192;2022-10-12T13:43:51;14.30;;;11.17;;
12788;SDS011;6458;42.710;23.192;2022-10-12T13:46:33;19.63;;;11.17;;
12788;SDS011;6458;42.710;23.192;2022-10-12T13:49:00;11.40;;;9.27;;
12788;SDS011;6458;42.710;23.192;2022-10-12T13:51:28;13.87;;;11.10;;
12788;SDS011;6458;42.710;23.192;2022-10-12T13:53:55;17.77;;;11.43;;
12788;SDS011;6458;42.710;23.192;2022-10-12T13:56:22;15.33;;;10.50;;
12788;SDS011;6458;42.710;23.192;2022-10-12T13:58:52;13.73;;;10.57;;
12788;SDS011;6458;42.710;23.192;2022-10-12T14:01:21;13.37;;;10.67;;
12788;SDS011;6458;42.710;23.192;2022-10-12T14:03:47;16.37;;;11.10;;
12788;SDS011;6458;42.710;23.192;2022-10-12T14:09:00;14.53;;;10.53;;
12788;SDS011;6458;42.710;23.192;2022-10-12T14:11:30;16.27;;;11.03;;
12788;SDS011;6458;42.710;23.192;2022-10-12T14:13:58;14.70;;;10.83;;
12788;SDS011;6458;42.710;23.192;2022-10-12T14:16:25;13.13;;;10.07;;
12788;SDS011;6458;42.710;23.192;2022-10-12T14:18:52;13.50;;;11.07;;
12788;SDS011;6458;42.710;23.192;2022-10-12T14:21:19;17.77;;;10.80;;
12788;SDS011;6458;42.710;23.192;2022-10-12T14:23:48;18.67;;;12.47;;
12788;SDS011;6458;42.710;23.192;2022-10-12T14:26:26;16.63;;;10.97;;
12788;SDS011;6458;42.710;23.192;2022-10-12T14:28:53;18.40;;;12.00;;
12788;SDS011;6458;42.710;23.192;2022-10-12T14:36:44;18.03;;;11.40;;
12788;SDS011;6458;42.710;23.192;2022-10-12T14:39:12;17.17;;;11.90;;
12788;SDS011;6458;42.710;23.192;2022-10-12T14:41:42;17.20;;;11.70;;
12788;SDS011;6458;42.710;23.192;2022-10-12T14:44:10;17.70;;;11.77;;
12788;SDS011;6458;42.710;23.192;2022-10-12T14:46:37;15.63;;;11.27;;
12788;SDS011;6458;42.710;23.192;2022-10-12T14:49:05;17.33;;;11.70;;
12788;SDS011;6458;42.710;23.192;2022-10-12T14:51:32;16.20;;;11.03;;
12788;SDS011;6458;42.710;23.192;2022-10-12T14:54:00;15.17;;;10.93;;
12788;SDS011;6458;42.710;23.192;2022-10-12T14:56:27;16.23;;;11.63;;